EGNX/EMA METAR and TAF weather

Enter ICAO airport designator
Station Type Date Time Source
EGNX METAR 2018/10/19 16:20 UTC NOAA

EGNX 191620Z 25006KT CAVOK 12/08 Q1025


Station Type Date Time Source
EGNX Decoded METAR 2018/10/19 16:20 UTC NOAA

East Midlands, United Kingdom (EGNX) 52-50N 001-20W
Oct 19, 2018 - 12:20 PM EDT / 2018.10.19 1620 UTC
Wind: from the WSW (250 degrees) at 7 MPH (6 KT):0
Visibility: greater than 7 mile(s):0
Temperature: 53 F (12 C)
Dew Point: 46 F (8 C)
Relative Humidity: 76%
Pressure (altimeter): 30.27 in. Hg (1025 hPa)
ob: EGNX 191620Z 25006KT CAVOK 12/08 Q1025
cycle: 16

Station Type Date Time Source
EGNX TAF 2018/10/19 12:09 UTC NOAA

TAF EGNX 191103Z 1912/2012 25005KT 9999 FEW045
BECMG 1923/2002 7000 PROB30 2002/2010 0300 FG VV/// PROB30
TEMPO 2010/2012 4000 BR BKN010


Example: see airport list